sensor_id;sensor_type;location;lat;lon;timestamp;pressure;altitude;pressure_sealevel;temperature;humidity
19845;BME280;10083;51.038;7.012;2024-02-21T00:01:03;104480.84;;;11.47;100.00
19845;BME280;10083;51.038;7.012;2024-02-21T00:03:31;104466.38;;;11.42;100.00
19845;BME280;10083;51.038;7.012;2024-02-21T00:05:58;104478.09;;;11.45;100.00
19845;BME280;10083;51.038;7.012;2024-02-21T00:08:25;104457.53;;;11.44;100.00
19845;BME280;10083;51.038;7.012;2024-02-21T00:10:55;104436.91;;;11.43;100.00
19845;BME280;10083;51.038;7.012;2024-02-21T00:13:21;104431.94;;;11.55;100.00
19845;BME280;10083;51.038;7.012;2024-02-21T00:15:50;104448.94;;;11.56;100.00
19845;BME280;10083;51.038;7.012;2024-02-21T00:18:17;104457.84;;;11.55;100.00
19845;BME280;10083;51.038;7.012;2024-02-21T00:20:43;104468.69;;;11.58;100.00
19845;BME280;10083;51.038;7.012;2024-02-21T00:23:11;104453.75;;;11.66;100.00
19845;BME280;10083;51.038;7.012;2024-02-21T00:25:37;104453.59;;;11.61;100.00
19845;BME280;10083;51.038;7.012;2024-02-21T00:28:06;104444.66;;;11.62;100.00
19845;BME280;10083;51.038;7.012;2024-02-21T00:30:33;104433.00;;;11.62;100.00
19845;BME280;10083;51.038;7.012;2024-02-21T00:33:04;104424.34;;;11.42;100.00
19845;BME280;10083;51.038;7.012;2024-02-21T00:35:31;104367.59;;;11.58;100.00
19845;BME280;10083;51.038;7.012;2024-02-21T00:37:58;104314.44;;;11.47;100.00
19845;BME280;10083;51.038;7.012;2024-02-21T00:40:25;104254.13;;;11.34;100.00
19845;BME280;10083;51.038;7.012;2024-02-21T00:42:55;104201.66;;;11.45;100.00
19845;BME280;10083;51.038;7.012;2024-02-21T00:45:22;104162.16;;;11.40;100.00
19845;BME280;10083;51.038;7.012;2024-02-21T00:47:51;104150.66;;;11.45;100.00
19845;BME280;10083;51.038;7.012;2024-02-21T00:50:19;104141.63;;;11.42;100.00
19845;BME280;10083;51.038;7.012;2024-02-21T00:52:46;104124.88;;;11.50;100.00
19845;BME280;10083;51.038;7.012;2024-02-21T00:55:14;104112.31;;;11.49;100.00
19845;BME280;10083;51.038;7.012;2024-02-21T00:57:41;104092.78;;;11.55;100.00
19845;BME280;10083;51.038;7.012;2024-02-21T01:00:08;104089.00;;;11.47;100.00
19845;BME280;10083;51.038;7.012;2024-02-21T01:02:38;104096.38;;;11.55;100.00
19845;BME280;10083;51.038;7.012;2024-02-21T01:05:05;104069.53;;;11.55;100.00
19845;BME280;10083;51.038;7.012;2024-02-21T01:07:34;104057.63;;;11.44;100.00
19845;BME280;10083;51.038;7.012;2024-02-21T01:10:01;104037.22;;;11.51;100.00
19845;BME280;10083;51.038;7.012;2024-02-21T01:12:28;104049.78;;;11.52;100.00
19845;BME280;10083;51.038;7.012;2024-02-21T01:14:58;104033.81;;;11.58;100.00
19845;BME280;10083;51.038;7.012;2024-02-21T01:17:30;104028.97;;;11.43;100.00
19845;BME280;10083;51.038;7.012;2024-02-21T01:20:00;104030.19;;;11.56;100.00
19845;BME280;10083;51.038;7.012;2024-02-21T01:22:27;104011.53;;;11.62;100.00
19845;BME280;10083;51.038;7.012;2024-02-21T01:24:55;104011.97;;;11.43;100.00
19845;BME280;10083;51.038;7.012;2024-02-21T01:27:22;103997.19;;;11.60;100.00
19845;BME280;10083;51.038;7.012;2024-02-21T01:29:49;103991.09;;;11.67;100.00
19845;BME280;10083;51.038;7.012;2024-02-21T01:32:16;104003.47;;;11.62;100.00
19845;BME280;10083;51.038;7.012;2024-02-21T01:34:43;104008.94;;;11.65;100.00
19845;BME280;10083;51.038;7.012;2024-02-21T01:37:10;104006.03;;;11.56;100.00
19845;BME280;10083;51.038;7.012;2024-02-21T01:39:37;103976.75;;;11.65;100.00
19845;BME280;10083;51.038;7.012;2024-02-21T01:42:05;104000.56;;;11.51;100.00
19845;BME280;10083;51.038;7.012;2024-02-21T01:44:32;103984.69;;;11.60;100.00
19845;BME280;10083;51.038;7.012;2024-02-21T01:46:59;103982.63;;;11.50;100.00
19845;BME280;10083;51.038;7.012;2024-02-21T01:49:26;103964.91;;;11.57;100.00
19845;BME280;10083;51.038;7.012;2024-02-21T01:51:55;103985.81;;;11.71;100.00
19845;BME280;10083;51.038;7.012;2024-02-21T01:54:22;104017.63;;;11.55;100.00
19845;BME280;10083;51.038;7.012;2024-02-21T01:56:50;104017.81;;;11.61;100.00
19845;BME280;10083;51.038;7.012;2024-02-21T01:59:19;104015.69;;;11.49;100.00
19845;BME280;10083;51.038;7.012;2024-02-21T02:01:50;104005.75;;;11.45;100.00
19845;BME280;10083;51.038;7.012;2024-02-21T02:04:19;103972.63;;;11.45;100.00
19845;BME280;10083;51.038;7.012;2024-02-21T02:06:46;103972.41;;;11.35;100.00
19845;BME280;10083;51.038;7.012;2024-02-21T02:09:14;103938.72;;;11.47;100.00
19845;BME280;10083;51.038;7.012;2024-02-21T02:11:42;103943.84;;;11.38;100.00
19845;BME280;10083;51.038;7.012;2024-02-21T02:14:09;103928.03;;;11.50;100.00
19845;BME280;10083;51.038;7.012;2024-02-21T02:16:37;103966.47;;;11.47;100.00
19845;BME280;10083;51.038;7.012;2024-02-21T02:19:04;103982.56;;;11.49;100.00
19845;BME280;10083;51.038;7.012;2024-02-21T02:21:35;104002.94;;;11.41;100.00
19845;BME280;10083;51.038;7.012;2024-02-21T02:24:06;103978.97;;;11.47;100.00
19845;BME280;10083;51.038;7.012;2024-02-21T02:26:33;103956.63;;;11.48;100.00
19845;BME280;10083;51.038;7.012;2024-02-21T02:29:01;103968.28;;;11.48;100.00
19845;BME280;10083;51.038;7.012;2024-02-21T02:31:28;103951.84;;;11.36;100.00
19845;BME280;10083;51.038;7.012;2024-02-21T02:33:55;103937.28;;;11.61;100.00
19845;BME280;10083;51.038;7.012;2024-02-21T02:36:24;103979.09;;;11.51;100.00
19845;BME280;10083;51.038;7.012;2024-02-21T02:38:51;103991.53;;;11.49;100.00
19845;BME280;10083;51.038;7.012;2024-02-21T02:41:20;103967.22;;;11.42;100.00
19845;BME280;10083;51.038;7.012;2024-02-21T02:43:47;103970.72;;;11.39;100.00
19845;BME280;10083;51.038;7.012;2024-02-21T02:46:16;103970.06;;;11.49;100.00
19845;BME280;10083;51.038;7.012;2024-02-21T02:48:43;103951.03;;;11.39;100.00
19845;BME280;10083;51.038;7.012;2024-02-21T02:51:12;103980.44;;;11.35;100.00
19845;BME280;10083;51.038;7.012;2024-02-21T02:53:39;103960.88;;;11.38;100.00
19845;BME280;10083;51.038;7.012;2024-02-21T02:56:06;103933.06;;;11.34;100.00
19845;BME280;10083;51.038;7.012;2024-02-21T02:58:34;103959.00;;;11.35;100.00
19845;BME280;10083;51.038;7.012;2024-02-21T03:01:01;103974.22;;;11.35;100.00
19845;BME280;10083;51.038;7.012;2024-02-21T03:03:29;103960.00;;;11.39;100.00
19845;BME280;10083;51.038;7.012;2024-02-21T03:05:59;103979.28;;;11.24;100.00
19845;BME280;10083;51.038;7.012;2024-02-21T03:08:26;103968.22;;;11.47;100.00
19845;BME280;10083;51.038;7.012;2024-02-21T03:10:53;103985.00;;;11.38;100.00
19845;BME280;10083;51.038;7.012;2024-02-21T03:13:20;103967.38;;;11.49;100.00
19845;BME280;10083;51.038;7.012;2024-02-21T03:15:48;103982.41;;;11.41;100.00
19845;BME280;10083;51.038;7.012;2024-02-21T03:18:20;103979.00;;;11.48;100.00
19845;BME280;10083;51.038;7.012;2024-02-21T03:20:47;103973.59;;;11.47;100.00
19845;BME280;10083;51.038;7.012;2024-02-21T03:23:14;103958.00;;;11.32;100.00
19845;BME280;10083;51.038;7.012;2024-02-21T03:25:41;103930.88;;;11.20;100.00
19845;BME280;10083;51.038;7.012;2024-02-21T03:28:08;103873.28;;;11.04;100.00
19845;BME280;10083;51.038;7.012;2024-02-21T03:30:35;103812.69;;;11.12;100.00
19845;BME280;10083;51.038;7.012;2024-02-21T03:33:04;103810.88;;;11.11;100.00
19845;BME280;10083;51.038;7.012;2024-02-21T03:35:31;103813.75;;;11.20;100.00
19845;BME280;10083;51.038;7.012;2024-02-21T03:37:59;103816.72;;;11.32;100.00
19845;BME280;10083;51.038;7.012;2024-02-21T03:40:26;103838.78;;;11.19;100.00
19845;BME280;10083;51.038;7.012;2024-02-21T03:42:53;103834.19;;;11.15;100.00
19845;BME280;10083;51.038;7.012;2024-02-21T03:45:20;103836.31;;;11.28;100.00
19845;BME280;10083;51.038;7.012;2024-02-21T03:47:47;103831.47;;;11.14;100.00
19845;BME280;10083;51.038;7.012;2024-02-21T03:50:18;103792.16;;;11.14;100.00
19845;BME280;10083;51.038;7.012;2024-02-21T03:52:45;103801.09;;;11.13;100.00
19845;BME280;10083;51.038;7.012;2024-02-21T03:55:12;103793.06;;;11.15;100.00
19845;BME280;10083;51.038;7.012;2024-02-21T03:57:39;103760.66;;;11.06;100.00
19845;BME280;10083;51.038;7.012;2024-02-21T04:00:10;103766.25;;;11.15;100.00
19845;BME280;10083;51.038;7.012;2024-02-21T04:02:37;103782.59;;;11.25;100.00
19845;BME280;10083;51.038;7.012;2024-02-21T04:05:07;103798.31;;;11.10;100.00
19845;BME280;10083;51.038;7.012;2024-02-21T04:07:37;103803.91;;;11.19;100.00
19845;BME280;10083;51.038;7.012;2024-02-21T04:10:05;103820.22;;;11.28;100.00
19845;BME280;10083;51.038;7.012;2024-02-21T04:12:32;103822.44;;;11.09;100.00
19845;BME280;10083;51.038;7.012;2024-02-21T04:14:59;103787.53;;;11.07;100.00
19845;BME280;10083;51.038;7.012;2024-02-21T04:17:29;103781.47;;;11.16;100.00
19845;BME280;10083;51.038;7.012;2024-02-21T04:20:02;103820.69;;;11.11;100.00
19845;BME280;10083;51.038;7.012;2024-02-21T04:22:30;103779.63;;;11.13;100.00
19845;BME280;10083;51.038;7.012;2024-02-21T04:25:00;103793.25;;;11.22;100.00
19845;BME280;10083;51.038;7.012;2024-02-21T04:27:27;103807.50;;;11.20;100.00
19845;BME280;10083;51.038;7.012;2024-02-21T04:29:54;103807.53;;;11.21;100.00
19845;BME280;10083;51.038;7.012;2024-02-21T04:32:21;103814.63;;;11.19;100.00
19845;BME280;10083;51.038;7.012;2024-02-21T04:34:48;103806.34;;;11.10;100.00
19845;BME280;10083;51.038;7.012;2024-02-21T04:37:15;103761.63;;;11.08;100.00
19845;BME280;10083;51.038;7.012;2024-02-21T04:39:41;103760.50;;;10.98;100.00
19845;BME280;10083;51.038;7.012;2024-02-21T04:42:12;103742.09;;;11.15;100.00
19845;BME280;10083;51.038;7.012;2024-02-21T04:44:41;103755.41;;;11.10;100.00
19845;BME280;10083;51.038;7.012;2024-02-21T04:47:08;103757.00;;;11.02;100.00
19845;BME280;10083;51.038;7.012;2024-02-21T04:49:35;103766.81;;;11.02;100.00
19845;BME280;10083;51.038;7.012;2024-02-21T04:52:02;103767.22;;;11.18;100.00
19845;BME280;10083;51.038;7.012;2024-02-21T04:54:31;103791.34;;;11.18;100.00
19845;BME280;10083;51.038;7.012;2024-02-21T04:57:03;103800.06;;;11.08;100.00
19845;BME280;10083;51.038;7.012;2024-02-21T04:59:32;103780.59;;;11.17;100.00
19845;BME280;10083;51.038;7.012;2024-02-21T05:02:02;103794.72;;;11.10;100.00
19845;BME280;10083;51.038;7.012;2024-02-21T05:04:32;103776.75;;;11.04;100.00
19845;BME280;10083;51.038;7.012;2024-02-21T05:07:00;103788.31;;;11.03;100.00
19845;BME280;10083;51.038;7.012;2024-02-21T05:09:26;103765.69;;;10.92;100.00
19845;BME280;10083;51.038;7.012;2024-02-21T05:11:53;103732.88;;;11.02;100.00
19845;BME280;10083;51.038;7.012;2024-02-21T05:14:20;103753.63;;;11.09;100.00
19845;BME280;10083;51.038;7.012;2024-02-21T05:16:48;103782.81;;;10.97;100.00
19845;BME280;10083;51.038;7.012;2024-02-21T05:19:15;103786.56;;;11.04;100.00
19845;BME280;10083;51.038;7.012;2024-02-21T05:21:43;103785.38;;;10.91;100.00
19845;BME280;10083;51.038;7.012;2024-02-21T05:24:10;103761.81;;;11.17;100.00
19845;BME280;10083;51.038;7.012;2024-02-21T05:26:37;103810.00;;;11.14;100.00
19845;BME280;10083;51.038;7.012;2024-02-21T05:29:04;103816.06;;;11.04;100.00
19845;BME280;10083;51.038;7.012;2024-02-21T05:31:54;103827.41;;;10.94;100.00
19845;BME280;10083;51.038;7.012;2024-02-21T05:34:23;103799.91;;;11.02;100.00
19845;BME280;10083;51.038;7.012;2024-02-21T05:36:50;103800.09;;;11.10;100.00
19845;BME280;10083;51.038;7.012;2024-02-21T05:39:17;103820.63;;;11.08;100.00
19845;BME280;10083;51.038;7.012;2024-02-21T05:41:44;103837.84;;;11.17;100.00
19845;BME280;10083;51.038;7.012;2024-02-21T05:44:12;103834.66;;;10.98;100.00
19845;BME280;10083;51.038;7.012;2024-02-21T05:46:39;103798.91;;;10.97;100.00
19845;BME280;10083;51.038;7.012;2024-02-21T05:49:05;103794.63;;;11.05;100.00
19845;BME280;10083;51.038;7.012;2024-02-21T05:51:35;103810.66;;;11.02;100.00
19845;BME280;10083;51.038;7.012;2024-02-21T05:54:02;103812.19;;;10.91;100.00
19845;BME280;10083;51.038;7.012;2024-02-21T05:56:29;103786.50;;;11.01;100.00
19845;BME280;10083;51.038;7.012;2024-02-21T05:58:56;103806.31;;;11.07;100.00
19845;BME280;10083;51.038;7.012;2024-02-21T06:01:22;103810.50;;;10.96;100.00
19845;BME280;10083;51.038;7.012;2024-02-21T06:03:49;103813.91;;;10.89;100.00
19845;BME280;10083;51.038;7.012;2024-02-21T06:06:16;103802.31;;;10.90;100.00
19845;BME280;10083;51.038;7.012;2024-02-21T06:08:44;103803.41;;;10.98;100.00
19845;BME280;10083;51.038;7.012;2024-02-21T06:11:12;103801.97;;;10.76;100.00
19845;BME280;10083;51.038;7.012;2024-02-21T06:13:41;103792.50;;;10.92;100.00
19845;BME280;10083;51.038;7.012;2024-02-21T06:16:07;103783.69;;;10.96;100.00
19845;BME280;10083;51.038;7.012;2024-02-21T06:18:35;103818.63;;;10.99;100.00
19845;BME280;10083;51.038;7.012;2024-02-21T06:21:03;103895.28;;;10.91;100.00
19845;BME280;10083;51.038;7.012;2024-02-21T06:23:30;104009.94;;;11.01;100.00
19845;BME280;10083;51.038;7.012;2024-02-21T06:25:59;104086.06;;;11.05;100.00
19845;BME280;10083;51.038;7.012;2024-02-21T06:28:25;104130.19;;;11.16;100.00
19845;BME280;10083;51.038;7.012;2024-02-21T06:30:52;104178.09;;;11.04;100.00
19845;BME280;10083;51.038;7.012;2024-02-21T06:33:19;104184.47;;;11.07;100.00
19845;BME280;10083;51.038;7.012;2024-02-21T06:35:50;104202.38;;;11.08;100.00
19845;BME280;10083;51.038;7.012;2024-02-21T06:38:19;104221.19;;;11.10;100.00
19845;BME280;10083;51.038;7.012;2024-02-21T06:40:45;104227.25;;;11.03;100.00
19845;BME280;10083;51.038;7.012;2024-02-21T06:43:18;104218.28;;;11.02;100.00
19845;BME280;10083;51.038;7.012;2024-02-21T06:45:46;104209.50;;;11.08;100.00
19845;BME280;10083;51.038;7.012;2024-02-21T06:48:16;104202.81;;;10.94;100.00
19845;BME280;10083;51.038;7.012;2024-02-21T06:50:44;104183.63;;;11.10;100.00
19845;BME280;10083;51.038;7.012;2024-02-21T06:53:11;104172.53;;;10.98;100.00
19845;BME280;10083;51.038;7.012;2024-02-21T06:55:38;104164.13;;;11.15;100.00
19845;BME280;10083;51.038;7.012;2024-02-21T06:58:05;104146.22;;;11.14;100.00
19845;BME280;10083;51.038;7.012;2024-02-21T07:03:07;104053.09;;;11.09;100.00
19845;BME280;10083;51.038;7.012;2024-02-21T07:05:34;104021.06;;;11.15;100.00
19845;BME280;10083;51.038;7.012;2024-02-21T07:08:01;103992.63;;;10.88;100.00
19845;BME280;10083;51.038;7.012;2024-02-21T07:10:31;103964.59;;;11.10;100.00
19845;BME280;10083;51.038;7.012;2024-02-21T07:12:58;104017.94;;;11.31;100.00
19845;BME280;10083;51.038;7.012;2024-02-21T07:15:26;104045.97;;;11.11;100.00
19845;BME280;10083;51.038;7.012;2024-02-21T07:17:55;104057.03;;;11.23;100.00
19845;BME280;10083;51.038;7.012;2024-02-21T07:20:22;104055.13;;;11.17;100.00
19845;BME280;10083;51.038;7.012;2024-02-21T07:22:50;104035.91;;;11.02;100.00
19845;BME280;10083;51.038;7.012;2024-02-21T07:25:17;103971.72;;;11.08;100.00
19845;BME280;10083;51.038;7.012;2024-02-21T07:27:44;103996.22;;;11.22;100.00
19845;BME280;10083;51.038;7.012;2024-02-21T07:30:12;104002.59;;;11.27;100.00
19845;BME280;10083;51.038;7.012;2024-02-21T07:32:39;104015.69;;;11.15;100.00
19845;BME280;10083;51.038;7.012;2024-02-21T07:35:08;104000.81;;;11.26;100.00
19845;BME280;10083;51.038;7.012;2024-02-21T07:37:36;104007.09;;;11.26;100.00
19845;BME280;10083;51.038;7.012;2024-02-21T07:40:05;104004.88;;;11.12;100.00
19845;BME280;10083;51.038;7.012;2024-02-21T07:42:32;103986.53;;;11.28;100.00
19845;BME280;10083;51.038;7.012;2024-02-21T07:44:59;103972.19;;;11.26;100.00
19845;BME280;10083;51.038;7.012;2024-02-21T07:47:26;103964.72;;;11.13;100.00
19845;BME280;10083;51.038;7.012;2024-02-21T07:49:53;103935.38;;;11.21;100.00
19845;BME280;10083;51.038;7.012;2024-02-21T07:52:22;103918.34;;;11.19;100.00
19845;BME280;10083;51.038;7.012;2024-02-21T07:54:49;103916.13;;;11.03;100.00
19845;BME280;10083;51.038;7.012;2024-02-21T07:57:16;103893.88;;;11.07;100.00
19845;BME280;10083;51.038;7.012;2024-02-21T07:59:43;103911.06;;;11.13;100.00
19845;BME280;10083;51.038;7.012;2024-02-21T08:02:13;103897.59;;;11.12;100.00
19845;BME280;10083;51.038;7.012;2024-02-21T08:04:40;103879.66;;;11.09;100.00
19845;BME280;10083;51.038;7.012;2024-02-21T08:07:07;103865.13;;;11.00;100.00
19845;BME280;10083;51.038;7.012;2024-02-21T08:09:35;103841.91;;;11.00;100.00
19845;BME280;10083;51.038;7.012;2024-02-21T08:12:04;103831.28;;;11.05;100.00
19845;BME280;10083;51.038;7.012;2024-02-21T08:14:31;103838.75;;;11.18;100.00
19845;BME280;10083;51.038;7.012;2024-02-21T08:16:58;103832.16;;;11.05;100.00
19845;BME280;10083;51.038;7.012;2024-02-21T08:19:25;103791.28;;;11.15;100.00
19845;BME280;10083;51.038;7.012;2024-02-21T08:21:52;103800.81;;;11.03;100.00
19845;BME280;10083;51.038;7.012;2024-02-21T08:24:19;103784.91;;;11.10;100.00
19845;BME280;10083;51.038;7.012;2024-02-21T08:26:50;103824.97;;;11.03;100.00
19845;BME280;10083;51.038;7.012;2024-02-21T08:29:17;103840.47;;;11.16;100.00
19845;BME280;10083;51.038;7.012;2024-02-21T08:31:44;103878.47;;;10.98;100.00
19845;BME280;10083;51.038;7.012;2024-02-21T08:34:11;103867.63;;;10.94;100.00
19845;BME280;10083;51.038;7.012;2024-02-21T08:36:38;103864.88;;;10.91;100.00
19845;BME280;10083;51.038;7.012;2024-02-21T08:39:05;103852.81;;;11.08;100.00
19845;BME280;10083;51.038;7.012;2024-02-21T08:41:33;103881.63;;;11.16;100.00
19845;BME280;10083;51.038;7.012;2024-02-21T08:44:02;103899.38;;;11.11;100.00
19845;BME280;10083;51.038;7.012;2024-02-21T08:46:29;103908.69;;;11.25;100.00
19845;BME280;10083;51.038;7.012;2024-02-21T08:48:56;103939.38;;;11.02;100.00
19845;BME280;10083;51.038;7.012;2024-02-21T08:51:24;103943.47;;;11.22;100.00
19845;BME280;10083;51.038;7.012;2024-02-21T08:53:52;103972.81;;;11.16;100.00
19845;BME280;10083;51.038;7.012;2024-02-21T08:56:19;103988.50;;;11.34;100.00
19845;BME280;10083;51.038;7.012;2024-02-21T08:58:46;104029.34;;;11.57;100.00
19845;BME280;10083;51.038;7.012;2024-02-21T09:01:13;104060.09;;;11.37;100.00
19845;BME280;10083;51.038;7.012;2024-02-21T09:03:40;104080.63;;;11.34;100.00
19845;BME280;10083;51.038;7.012;2024-02-21T09:06:07;104078.97;;;11.40;100.00
19845;BME280;10083;51.038;7.012;2024-02-21T09:08:36;104086.13;;;11.39;100.00
19845;BME280;10083;51.038;7.012;2024-02-21T09:11:05;104090.25;;;11.26;100.00
19845;BME280;10083;51.038;7.012;2024-02-21T09:13:33;104094.44;;;11.50;100.00
19845;BME280;10083;51.038;7.012;2024-02-21T09:16:00;104124.50;;;11.69;100.00
19845;BME280;10083;51.038;7.012;2024-02-21T09:18:31;104135.66;;;11.85;100.00
19845;BME280;10083;51.038;7.012;2024-02-21T09:20:58;104179.16;;;12.04;100.00
19845;BME280;10083;51.038;7.012;2024-02-21T09:23:27;104196.69;;;11.90;100.00
19845;BME280;10083;51.038;7.012;2024-02-21T09:25:58;104208.97;;;12.13;100.00
19845;BME280;10083;51.038;7.012;2024-02-21T09:28:26;104227.97;;;11.88;100.00
19845;BME280;10083;51.038;7.012;2024-02-21T09:30:52;104235.75;;;11.77;100.00
19845;BME280;10083;51.038;7.012;2024-02-21T09:33:19;104234.91;;;11.80;100.00
19845;BME280;10083;51.038;7.012;2024-02-21T09:35:47;104236.66;;;11.78;100.00
19845;BME280;10083;51.038;7.012;2024-02-21T09:38:16;104231.78;;;11.96;100.00
19845;BME280;10083;51.038;7.012;2024-02-21T09:40:44;104230.28;;;12.07;100.00
19845;BME280;10083;51.038;7.012;2024-02-21T09:43:11;104225.75;;;12.41;100.00
19845;BME280;10083;51.038;7.012;2024-02-21T09:45:46;104233.59;;;12.32;100.00
19845;BME280;10083;51.038;7.012;2024-02-21T09:48:36;104235.03;;;12.53;100.00
19845;BME280;10083;51.038;7.012;2024-02-21T09:51:09;104235.09;;;12.55;100.00
19845;BME280;10083;51.038;7.012;2024-02-21T09:53:37;104247.13;;;12.35;100.00
19845;BME280;10083;51.038;7.012;2024-02-21T09:56:07;104263.44;;;12.42;100.00
19845;BME280;10083;51.038;7.012;2024-02-21T09:58:34;104256.97;;;12.34;100.00
19845;BME280;10083;51.038;7.012;2024-02-21T10:01:02;104246.94;;;12.63;100.00
19845;BME280;10083;51.038;7.012;2024-02-21T10:03:32;104235.16;;;12.58;100.00
19845;BME280;10083;51.038;7.012;2024-02-21T10:05:59;104245.91;;;12.58;100.00
19845;BME280;10083;51.038;7.012;2024-02-21T10:08:29;104221.34;;;12.80;100.00
19845;BME280;10083;51.038;7.012;2024-02-21T10:10:56;104221.34;;;12.80;100.00
19845;BME280;10083;51.038;7.012;2024-02-21T10:13:26;104214.03;;;13.12;100.00
19845;BME280;10083;51.038;7.012;2024-02-21T10:16:06;104213.13;;;13.11;100.00
19845;BME280;10083;51.038;7.012;2024-02-21T10:18:34;104184.09;;;13.39;100.00
19845;BME280;10083;51.038;7.012;2024-02-21T10:21:02;104210.25;;;13.05;100.00
19845;BME280;10083;51.038;7.012;2024-02-21T10:23:42;104216.22;;;12.92;100.00
19845;BME280;10083;51.038;7.012;2024-02-21T10:26:09;104207.66;;;13.08;100.00
19845;BME280;10083;51.038;7.012;2024-02-21T10:28:37;104212.88;;;13.02;100.00
19845;BME280;10083;51.038;7.012;2024-02-21T10:31:08;104202.28;;;13.08;100.00
19845;BME280;10083;51.038;7.012;2024-02-21T10:33:35;104174.78;;;13.22;100.00
19845;BME280;10083;51.038;7.012;2024-02-21T10:36:07;104200.31;;;13.01;100.00
19845;BME280;10083;51.038;7.012;2024-02-21T10:38:35;104198.31;;;12.91;100.00
19845;BME280;10083;51.038;7.012;2024-02-21T10:41:04;104188.78;;;13.07;100.00
19845;BME280;10083;51.038;7.012;2024-02-21T10:43:38;104148.28;;;13.44;100.00
19845;BME280;10083;51.038;7.012;2024-02-21T10:46:06;104116.97;;;13.49;100.00
19845;BME280;10083;51.038;7.012;2024-02-21T10:48:41;104117.72;;;13.41;100.00
19845;BME280;10083;51.038;7.012;2024-02-21T10:51:16;104104.06;;;13.32;100.00
19845;BME280;10083;51.038;7.012;2024-02-21T10:53:50;104067.00;;;13.65;100.00
19845;BME280;10083;51.038;7.012;2024-02-21T10:56:28;104054.53;;;13.70;100.00
19845;BME280;10083;51.038;7.012;2024-02-21T10:58:57;104088.34;;;13.53;100.00
19845;BME280;10083;51.038;7.012;2024-02-21T11:01:25;104094.00;;;13.68;100.00
19845;BME280;10083;51.038;7.012;2024-02-21T11:03:55;103998.56;;;14.10;100.00
19845;BME280;10083;51.038;7.012;2024-02-21T11:06:26;103989.41;;;13.98;100.00
19845;BME280;10083;51.038;7.012;2024-02-21T11:09:02;103983.00;;;13.90;100.00
19845;BME280;10083;51.038;7.012;2024-02-21T11:11:33;104027.94;;;13.93;100.00
19845;BME280;10083;51.038;7.012;2024-02-21T11:14:04;103918.25;;;14.52;100.00
19845;BME280;10083;51.038;7.012;2024-02-21T11:16:35;103921.59;;;14.31;100.00
19845;BME280;10083;51.038;7.012;2024-02-21T11:19:09;103865.75;;;15.12;100.00
19845;BME280;10083;51.038;7.012;2024-02-21T11:21:37;103825.44;;;15.40;100.00
19845;BME280;10083;51.038;7.012;2024-02-21T11:24:04;103805.63;;;15.38;100.00
19845;BME280;10083;51.038;7.012;2024-02-21T11:26:33;103854.38;;;14.46;100.00
19845;BME280;10083;51.038;7.012;2024-02-21T11:29:01;103828.81;;;15.08;100.00
19845;BME280;10083;51.038;7.012;2024-02-21T11:31:38;103819.84;;;15.09;100.00
19845;BME280;10083;51.038;7.012;2024-02-21T11:34:08;103821.47;;;14.87;100.00
19845;BME280;10083;51.038;7.012;2024-02-21T11:36:35;103899.41;;;14.58;100.00
19845;BME280;10083;51.038;7.012;2024-02-21T11:39:05;103876.88;;;14.48;100.00
19845;BME280;10083;51.038;7.012;2024-02-21T11:41:33;103927.50;;;14.03;100.00
19845;BME280;10083;51.038;7.012;2024-02-21T11:44:00;103904.94;;;13.95;100.00
19845;BME280;10083;51.038;7.012;2024-02-21T11:46:26;103873.41;;;13.89;100.00
19845;BME280;10083;51.038;7.012;2024-02-21T11:48:53;103904.84;;;13.87;100.00
19845;BME280;10083;51.038;7.012;2024-02-21T11:51:24;103860.25;;;14.15;100.00
19845;BME280;10083;51.038;7.012;2024-02-21T11:53:52;103846.81;;;14.17;100.00
19845;BME280;10083;51.038;7.012;2024-02-21T11:56:19;103845.94;;;14.19;100.00
19845;BME280;10083;51.038;7.012;2024-02-21T11:58:50;103845.81;;;14.10;100.00
19845;BME280;10083;51.038;7.012;2024-02-21T12:01:16;103816.66;;;14.51;100.00
19845;BME280;10083;51.038;7.012;2024-02-21T12:03:46;103774.34;;;14.44;100.00
19845;BME280;10083;51.038;7.012;2024-02-21T12:06:16;103767.97;;;14.37;100.00
19845;BME280;10083;51.038;7.012;2024-02-21T12:08:47;103768.59;;;14.12;100.00
19845;BME280;10083;51.038;7.012;2024-02-21T12:11:19;103784.09;;;14.31;100.00
19845;BME280;10083;51.038;7.012;2024-02-21T12:13:46;103794.66;;;14.13;100.00
19845;BME280;10083;51.038;7.012;2024-02-21T12:16:16;103769.59;;;14.22;100.00
19845;BME280;10083;51.038;7.012;2024-02-21T12:18:44;103768.41;;;13.94;100.00
19845;BME280;10083;51.038;7.012;2024-02-21T12:21:11;103810.22;;;13.63;100.00
19845;BME280;10083;51.038;7.012;2024-02-21T12:23:39;103800.31;;;13.61;100.00
19845;BME280;10083;51.038;7.012;2024-02-21T12:26:06;103811.91;;;13.55;100.00
19845;BME280;10083;51.038;7.012;2024-02-21T12:28:33;103799.31;;;13.52;100.00
19845;BME280;10083;51.038;7.012;2024-02-21T12:31:00;103835.72;;;13.26;100.00
19845;BME280;10083;51.038;7.012;2024-02-21T12:33:31;103827.00;;;13.42;100.00
19845;BME280;10083;51.038;7.012;2024-02-21T12:35:58;103788.00;;;13.81;100.00
19845;BME280;10083;51.038;7.012;2024-02-21T12:38:25;103750.28;;;13.81;100.00
19845;BME280;10083;51.038;7.012;2024-02-21T12:40:52;103690.56;;;14.26;100.00
19845;BME280;10083;51.038;7.012;2024-02-21T12:43:22;103691.34;;;14.14;100.00
19845;BME280;10083;51.038;7.012;2024-02-21T12:45:52;103666.25;;;14.18;100.00
19845;BME280;10083;51.038;7.012;2024-02-21T12:48:19;103625.16;;;14.48;100.00